createdAt,value
2022-08-30T00:01:01.889Z,4.88
2022-08-30T00:03:34.581Z,4.53
2022-08-30T00:06:01.065Z,4.72
2022-08-30T00:08:27.847Z,4.75
2022-08-30T00:10:54.776Z,4.32
2022-08-30T00:13:22.407Z,4.35
2022-08-30T00:15:49.255Z,4.35
2022-08-30T00:18:18.193Z,4.53
2022-08-30T00:20:47.676Z,4.40
2022-08-30T00:23:14.588Z,4.47
2022-08-30T00:25:42.176Z,4.68
2022-08-30T00:28:09.685Z,4.30
2022-08-30T00:30:37.519Z,4.20
2022-08-30T00:33:04.604Z,3.78
2022-08-30T00:35:31.331Z,3.97
2022-08-30T00:37:58.427Z,4.40
2022-08-30T00:40:27.934Z,4.63
2022-08-30T00:43:02.262Z,4.35
2022-08-30T00:45:35.301Z,4.43
2022-08-30T00:48:02.845Z,5.03
2022-08-30T00:50:32.792Z,4.65
2022-08-30T00:53:01.141Z,3.83
2022-08-30T00:55:29.612Z,4.43
2022-08-30T00:58:00.227Z,4.15
2022-08-30T01:00:28.664Z,4.78
2022-08-30T01:02:55.651Z,4.38
2022-08-30T01:05:24.324Z,4.40
2022-08-30T01:07:50.769Z,4.28
2022-08-30T01:10:18.312Z,4.63
2022-08-30T01:12:45.309Z,4.63
2022-08-30T01:15:14.458Z,3.80
2022-08-30T01:17:43.762Z,4.00
2022-08-30T01:20:38.271Z,4.32
2022-08-30T01:23:14.621Z,4.25
2022-08-30T01:25:43.752Z,4.07
2022-08-30T01:28:15.782Z,4.20
2022-08-30T01:30:45.746Z,4.18
2022-08-30T01:33:13.495Z,3.83
2022-08-30T01:35:56.843Z,4.22
2022-08-30T01:38:28.735Z,4.15
2022-08-30T01:41:10.576Z,4.13
2022-08-30T01:43:37.326Z,3.65
2022-08-30T01:46:06.163Z,4.10
2022-08-30T01:48:34.835Z,4.07
2022-08-30T01:51:02.278Z,4.50
2022-08-30T01:53:29.227Z,4.03
2022-08-30T01:55:56.380Z,4.10
2022-08-30T01:58:23.208Z,3.78
2022-08-30T02:00:50.225Z,4.22
2022-08-30T02:03:17.188Z,3.70
2022-08-30T02:05:43.687Z,4.40
2022-08-30T02:08:10.071Z,4.40
2022-08-30T02:10:36.869Z,4.60
2022-08-30T02:13:04.176Z,4.38
2022-08-30T02:15:30.680Z,3.78
2022-08-30T02:18:01.417Z,4.43
2022-08-30T02:20:28.602Z,4.20
2022-08-30T02:22:56.725Z,4.75
2022-08-30T02:25:26.030Z,4.35
2022-08-30T02:27:52.792Z,4.32
2022-08-30T02:30:19.148Z,4.13
2022-08-30T02:32:45.514Z,3.90
2022-08-30T02:35:12.263Z,4.43
2022-08-30T02:37:39.043Z,4.10
2022-08-30T02:40:07.482Z,4.70
2022-08-30T02:42:34.078Z,4.13
2022-08-30T02:45:01.077Z,4.15
2022-08-30T02:47:27.619Z,4.15
2022-08-30T02:49:53.995Z,4.43
2022-08-30T02:52:20.777Z,4.57
2022-08-30T02:54:55.100Z,4.20
2022-08-30T02:57:22.087Z,4.20
2022-08-30T02:59:49.149Z,4.32
2022-08-30T03:02:15.888Z,4.18
2022-08-30T03:04:45.068Z,4.00
2022-08-30T03:07:12.639Z,4.00
2022-08-30T03:09:39.607Z,4.40
2022-08-30T03:12:08.189Z,4.07
2022-08-30T03:14:36.640Z,3.85
2022-08-30T03:17:06.669Z,3.88
2022-08-30T03:19:38.416Z,3.75
2022-08-30T03:22:06.787Z,3.58
2022-08-30T03:24:34.519Z,4.40
2022-08-30T03:27:01.364Z,4.53
2022-08-30T03:29:30.171Z,4.40
2022-08-30T03:31:57.408Z,3.97
2022-08-30T03:34:25.650Z,4.07
2022-08-30T03:36:54.182Z,4.15
2022-08-30T03:39:22.325Z,4.28
2022-08-30T03:41:49.291Z,4.28
2022-08-30T03:44:16.275Z,4.68
2022-08-30T03:46:43.247Z,4.07
2022-08-30T03:49:09.646Z,4.47
2022-08-30T03:51:36.578Z,4.10
2022-08-30T03:54:03.321Z,3.95
2022-08-30T03:56:29.982Z,3.92
2022-08-30T03:58:57.174Z,3.75
2022-08-30T04:01:23.584Z,4.25
2022-08-30T04:03:49.980Z,4.05
2022-08-30T04:06:17.295Z,3.80
2022-08-30T04:08:46.288Z,3.90
2022-08-30T04:11:14.901Z,4.13
2022-08-30T04:13:41.269Z,4.13
2022-08-30T04:16:07.720Z,3.80
2022-08-30T04:18:35.948Z,4.25
2022-08-30T04:21:03.838Z,4.35
2022-08-30T04:23:30.683Z,3.85
2022-08-30T04:25:58.048Z,4.25
2022-08-30T04:28:24.403Z,4.10
2022-08-30T04:30:51.243Z,4.20
2022-08-30T04:33:18.144Z,4.20
2022-08-30T04:35:47.730Z,4.35
2022-08-30T04:38:15.851Z,4.07
2022-08-30T04:40:44.148Z,3.85
2022-08-30T04:43:12.712Z,4.57
2022-08-30T04:45:40.940Z,4.38
2022-08-30T04:48:08.525Z,3.85
2022-08-30T04:50:34.916Z,3.88
2022-08-30T04:53:01.827Z,4.05
2022-08-30T04:55:28.350Z,4.13
2022-08-30T04:57:54.924Z,4.32
2022-08-30T05:00:21.919Z,4.13
2022-08-30T05:02:48.994Z,4.57
2022-08-30T05:05:34.206Z,3.58
2022-08-30T05:10:29.938Z,4.32
2022-08-30T05:12:56.851Z,4.10
2022-08-30T05:15:23.809Z,4.82
2022-08-30T05:17:50.238Z,4.45
2022-08-30T05:20:17.688Z,4.53
2022-08-30T05:22:53.273Z,3.97
2022-08-30T05:25:26.538Z,3.78
2022-08-30T05:27:53.582Z,4.38
2022-08-30T05:30:21.474Z,4.50
2022-08-30T05:32:48.434Z,4.80
2022-08-30T05:35:17.283Z,4.50
2022-08-30T05:37:43.843Z,4.30
2022-08-30T05:40:11.856Z,4.28
2022-08-30T05:42:41.235Z,4.03
2022-08-30T05:45:08.476Z,4.68
2022-08-30T05:47:35.959Z,4.50
2022-08-30T05:50:02.903Z,4.45
2022-08-30T05:52:29.313Z,5.10
2022-08-30T05:55:00.447Z,4.90
2022-08-30T05:57:26.838Z,4.50
2022-08-30T05:59:53.223Z,4.05
2022-08-30T06:02:19.993Z,4.40
2022-08-30T06:04:46.427Z,4.20
2022-08-30T06:07:15.746Z,3.80
2022-08-30T06:09:44.282Z,4.07
2022-08-30T06:12:10.755Z,4.57
2022-08-30T06:14:39.549Z,3.05
2022-08-30T06:17:06.511Z,3.55
2022-08-30T06:19:32.935Z,3.00
2022-08-30T06:22:01.170Z,5.43
2022-08-30T06:24:41.041Z,5.03
2022-08-30T06:27:14.586Z,4.65
2022-08-30T06:29:41.606Z,5.18
2022-08-30T06:32:08.014Z,5.63
2022-08-30T06:34:34.950Z,4.70
2022-08-30T06:37:01.375Z,4.75
2022-08-30T06:39:27.901Z,4.43
2022-08-30T06:41:54.587Z,4.65
2022-08-30T06:44:21.116Z,4.65
2022-08-30T06:46:47.931Z,4.80
2022-08-30T06:49:14.871Z,4.93
2022-08-30T06:51:42.110Z,4.85
2022-08-30T06:54:11.997Z,5.32
2022-08-30T06:56:48.593Z,4.93
2022-08-30T06:59:24.473Z,4.50
2022-08-30T07:01:50.892Z,4.90
2022-08-30T07:04:17.613Z,4.70
2022-08-30T07:06:44.848Z,4.57
2022-08-30T07:09:11.663Z,5.13
2022-08-30T07:11:41.285Z,4.82
2022-08-30T07:14:08.452Z,4.78
2022-08-30T07:16:35.959Z,4.50
2022-08-30T07:19:03.851Z,4.93
2022-08-30T07:21:49.558Z,5.13
2022-08-30T07:24:16.493Z,4.95
2022-08-30T07:26:47.164Z,5.28
2022-08-30T07:29:13.959Z,5.60
2022-08-30T07:31:40.445Z,5.03
2022-08-30T07:34:08.514Z,6.15
2022-08-30T07:36:37.483Z,5.90
2022-08-30T07:39:05.191Z,4.45
2022-08-30T07:41:35.656Z,5.50
2022-08-30T07:44:02.325Z,5.30
2022-08-30T07:46:28.895Z,4.97
2022-08-30T07:48:56.352Z,5.78
2022-08-30T07:51:26.304Z,5.85
2022-08-30T07:53:53.174Z,5.22
2022-08-30T07:56:21.105Z,5.32
2022-08-30T07:58:48.882Z,5.82
2022-08-30T08:01:17.161Z,5.07
2022-08-30T08:03:44.339Z,5.18
2022-08-30T08:06:13.919Z,5.00
2022-08-30T08:08:42.188Z,5.00
2022-08-30T08:11:16.442Z,5.32
2022-08-30T08:13:53.013Z,5.38
2022-08-30T08:16:27.355Z,5.78
2022-08-30T08:18:54.560Z,5.35
2022-08-30T08:21:22.588Z,5.20
2022-08-30T08:23:49.967Z,6.03
2022-08-30T08:26:16.565Z,6.00
2022-08-30T08:28:44.928Z,5.72
2022-08-30T08:31:20.633Z,5.68
2022-08-30T08:33:47.344Z,5.65
2022-08-30T08:36:14.034Z,5.32
2022-08-30T08:38:40.853Z,5.57
2022-08-30T08:41:28.626Z,5.70
2022-08-30T08:43:55.577Z,5.88
2022-08-30T08:46:40.294Z,5.20
2022-08-30T08:49:12.535Z,5.55
2022-08-30T08:51:58.411Z,5.55
2022-08-30T08:54:34.669Z,4.93
2022-08-30T08:57:01.132Z,5.70
2022-08-30T08:59:28.203Z,4.72
2022-08-30T09:01:59.374Z,4.88
2022-08-30T09:04:32.377Z,5.35
2022-08-30T09:07:05.731Z,5.35
2022-08-30T09:09:35.744Z,5.22
2022-08-30T09:12:03.968Z,5.50
2022-08-30T09:14:36.836Z,5.13
2022-08-30T09:17:09.547Z,5.32
2022-08-30T09:19:51.698Z,5.05
2022-08-30T09:22:26.930Z,5.03
2022-08-30T09:25:13.513Z,4.80
2022-08-30T09:27:40.339Z,4.68
2022-08-30T09:30:16.935Z,5.07
2022-08-30T09:32:53.009Z,4.22
2022-08-30T09:35:42.837Z,4.85
2022-08-30T09:38:19.163Z,4.50
2022-08-30T09:40:55.507Z,5.22
2022-08-30T09:43:23.876Z,5.70
2022-08-30T09:46:01.592Z,6.55
2022-08-30T09:48:33.050Z,4.70
2022-08-30T09:51:12.047Z,5.10
2022-08-30T09:57:03.335Z,4.78
2022-08-30T10:00:08.455Z,4.95
2022-08-30T10:02:46.727Z,5.00
2022-08-30T10:05:20.703Z,5.65
2022-08-30T10:08:06.080Z,4.15
2022-08-30T10:10:51.623Z,4.60
2022-08-30T10:13:42.652Z,5.30
2022-08-30T10:16:19.591Z,5.18
2022-08-30T10:19:17.422Z,5.55
2022-08-30T10:21:51.553Z,4.72
2022-08-30T10:24:24.280Z,4.68
2022-08-30T10:27:05.314Z,4.60
2022-08-30T10:29:34.175Z,4.20
2022-08-30T10:32:17.918Z,4.30
2022-08-30T10:35:05.907Z,4.28
2022-08-30T10:37:39.068Z,4.53
2022-08-30T10:40:33.497Z,4.00
2022-08-30T10:43:04.606Z,4.47
2022-08-30T10:45:35.745Z,4.13
2022-08-30T10:48:21.024Z,4.10
2022-08-30T10:50:54.146Z,3.20
2022-08-30T10:53:36.953Z,4.85
2022-08-30T10:56:11.470Z,4.20
2022-08-30T10:58:41.412Z,4.43
2022-08-30T11:01:31.493Z,3.85
2022-08-30T11:04:07.265Z,3.70
2022-08-30T11:06:56.339Z,4.13
2022-08-30T11:10:00.213Z,4.28
2022-08-30T11:12:37.623Z,3.95
2022-08-30T11:15:15.770Z,3.78
2022-08-30T11:18:09.523Z,3.88
2022-08-30T11:23:30.521Z,4.15
2022-08-30T11:26:12.153Z,3.40
2022-08-30T11:28:47.106Z,3.25
2022-08-30T11:31:22.647Z,4.18
2022-08-30T11:33:59.473Z,4.55
2022-08-30T11:36:37.753Z,3.70
2022-08-30T11:39:09.447Z,3.90
2022-08-30T11:41:46.142Z,4.43
2022-08-30T11:44:32.259Z,3.95
2022-08-30T11:47:02.446Z,3.72
2022-08-30T11:49:50.184Z,4.22
2022-08-30T11:52:35.278Z,4.03
2022-08-30T11:55:37.126Z,3.47
2022-08-30T11:58:28.039Z,3.60
2022-08-30T12:01:49.634Z,4.30
2022-08-30T12:04:17.645Z,3.53
2022-08-30T12:06:52.784Z,3.95
2022-08-30T12:09:25.359Z,4.00
2022-08-30T12:12:11.592Z,4.70
2022-08-30T12:14:47.483Z,4.28
2022-08-30T12:17:41.616Z,4.32
2022-08-30T12:20:40.963Z,3.72
2022-08-30T12:23:26.991Z,3.67
2022-08-30T12:26:34.434Z,4.40
2022-08-30T12:29:24.426Z,4.00
2022-08-30T12:31:55.519Z,3.70
2022-08-30T12:34:24.684Z,4.30
2022-08-30T12:36:58.705Z,3.90
2022-08-30T12:39:33.730Z,4.15
2022-08-30T12:42:22.257Z,4.85
2022-08-30T12:44:55.618Z,3.72
2022-08-30T12:47:31.581Z,4.13
2022-08-30T12:49:59.505Z,3.85
2022-08-30T12:52:26.433Z,4.65
2022-08-30T12:54:55.683Z,4.15
2022-08-30T12:57:43.188Z,4.30
2022-08-30T13:00:34.062Z,4.20
2022-08-30T13:03:25.146Z,3.92
2022-08-30T13:05:53.370Z,3.75
2022-08-30T13:08:36.862Z,4.07
2022-08-30T13:11:25.416Z,4.18
2022-08-30T13:14:18.246Z,3.40
2022-08-30T13:16:46.407Z,4.05
2022-08-30T13:19:33.556Z,3.88
2022-08-30T13:22:01.421Z,3.80
2022-08-30T13:24:29.031Z,3.80
2022-08-30T13:26:58.171Z,4.00
2022-08-30T13:29:27.876Z,3.63
2022-08-30T13:31:55.796Z,3.83
2022-08-30T13:34:22.772Z,3.90
2022-08-30T13:36:58.216Z,3.58
2022-08-30T13:39:25.099Z,3.53
2022-08-30T13:41:52.682Z,3.63
2022-08-30T13:44:19.898Z,4.20
2022-08-30T13:46:54.409Z,3.38
2022-08-30T13:52:21.560Z,3.63
2022-08-30T13:54:53.916Z,3.67
2022-08-30T14:00:14.903Z,3.90
2022-08-30T14:02:45.362Z,4.07
2022-08-30T14:05:30.835Z,3.95
2022-08-30T14:08:00.582Z,4.10
2022-08-30T14:10:31.153Z,3.85
2022-08-30T14:13:08.191Z,4.32
2022-08-30T14:15:39.036Z,4.13
2022-08-30T14:18:06.675Z,3.75
2022-08-30T14:20:35.348Z,3.03
2022-08-30T14:23:07.667Z,4.63
2022-08-30T14:25:37.650Z,3.67
2022-08-30T14:28:07.032Z,3.90
2022-08-30T14:30:33.897Z,3.90
2022-08-30T14:33:00.455Z,3.75
2022-08-30T14:35:26.826Z,3.90
2022-08-30T14:37:54.496Z,3.78
2022-08-30T14:40:21.002Z,3.92
2022-08-30T14:42:47.385Z,4.00
2022-08-30T14:45:14.389Z,3.90
2022-08-30T14:47:40.831Z,3.92
2022-08-30T14:50:07.995Z,3.47
2022-08-30T14:52:35.366Z,3.63
2022-08-30T14:55:08.515Z,3.40
2022-08-30T15:00:07.779Z,3.75
2022-08-30T15:02:34.208Z,3.42
2022-08-30T15:05:00.693Z,3.80
2022-08-30T15:07:27.925Z,3.80
2022-08-30T15:09:54.409Z,3.35
2022-08-30T15:12:20.879Z,3.70
2022-08-30T15:14:47.677Z,3.67
2022-08-30T15:17:14.087Z,3.42
2022-08-30T15:19:41.789Z,3.67
2022-08-30T15:22:09.685Z,3.45
2022-08-30T15:24:36.667Z,3.53
2022-08-30T15:27:03.397Z,3.25
2022-08-30T15:29:31.740Z,3.58
2022-08-30T15:31:58.959Z,3.50
2022-08-30T15:34:26.194Z,3.35
2022-08-30T15:36:55.044Z,3.45
2022-08-30T15:39:21.473Z,3.70
2022-08-30T15:41:56.039Z,3.33
2022-08-30T15:44:25.427Z,3.40
2022-08-30T15:46:52.060Z,3.60
2022-08-30T15:49:21.478Z,3.58
2022-08-30T15:51:51.548Z,3.83
2022-08-30T15:54:23.179Z,3.63
2022-08-30T15:56:50.714Z,3.75
2022-08-30T15:59:18.661Z,4.03
2022-08-30T16:01:45.389Z,4.25
2022-08-30T16:04:18.648Z,3.60
2022-08-30T16:06:46.030Z,3.97
2022-08-30T16:09:12.466Z,4.00
2022-08-30T16:11:39.889Z,3.60
2022-08-30T16:14:06.371Z,3.92
2022-08-30T16:16:33.307Z,3.60
2022-08-30T16:19:01.735Z,4.05
2022-08-30T16:21:33.140Z,4.07
2022-08-30T16:24:01.408Z,3.95
2022-08-30T16:26:30.630Z,4.43
2022-08-30T16:28:58.705Z,4.28
2022-08-30T16:31:27.356Z,3.65
2022-08-30T16:33:55.641Z,4.00
2022-08-30T16:36:29.627Z,4.45
2022-08-30T16:38:58.310Z,3.33
2022-08-30T16:41:25.256Z,4.15
2022-08-30T16:43:53.648Z,4.10
2022-08-30T16:46:23.352Z,4.20
2022-08-30T16:48:56.174Z,3.90
2022-08-30T16:51:24.383Z,4.43
2022-08-30T16:53:54.725Z,3.92
2022-08-30T16:56:24.423Z,4.22
2022-08-30T16:59:00.708Z,4.32
2022-08-30T17:01:29.010Z,4.43
2022-08-30T17:03:55.912Z,4.43
2022-08-30T17:06:22.623Z,3.95
2022-08-30T17:08:48.967Z,4.18
2022-08-30T17:11:22.860Z,4.13
2022-08-30T17:13:49.248Z,4.68
2022-08-30T17:16:27.693Z,4.22
2022-08-30T17:19:00.813Z,4.07
2022-08-30T17:21:29.526Z,4.32
2022-08-30T17:24:01.462Z,4.53
2022-08-30T17:26:29.252Z,4.85
2022-08-30T17:28:55.622Z,4.95
2022-08-30T17:31:22.398Z,4.40
2022-08-30T17:33:50.002Z,4.80
2022-08-30T17:36:16.410Z,5.18
2022-08-30T17:38:45.200Z,5.22
2022-08-30T17:41:13.498Z,4.57
2022-08-30T17:43:40.133Z,4.45
2022-08-30T17:46:12.002Z,4.80
2022-08-30T17:48:40.971Z,3.95
2022-08-30T17:51:07.946Z,4.05
2022-08-30T17:53:34.599Z,5.00
2022-08-30T17:56:01.483Z,4.55
2022-08-30T17:58:28.051Z,4.68
2022-08-30T18:01:11.689Z,4.75
2022-08-30T18:03:39.246Z,4.50
2022-08-30T18:06:06.671Z,5.47
2022-08-30T18:08:34.028Z,4.55
2022-08-30T18:11:01.074Z,4.72
2022-08-30T18:13:27.479Z,5.20
2022-08-30T18:15:54.280Z,4.80
2022-08-30T18:18:21.108Z,5.00
2022-08-30T18:20:47.755Z,4.95
2022-08-30T18:23:14.981Z,5.40
2022-08-30T18:25:42.031Z,5.13
2022-08-30T18:28:08.732Z,5.22
2022-08-30T18:30:41.410Z,5.82
2022-08-30T18:33:09.202Z,4.78
2022-08-30T18:35:36.346Z,4.88
2022-08-30T18:38:03.809Z,5.10
2022-08-30T18:40:30.438Z,5.50
2022-08-30T18:42:56.807Z,5.10
2022-08-30T18:45:24.347Z,5.75
2022-08-30T18:47:50.813Z,5.07
2022-08-30T18:50:17.309Z,5.10
2022-08-30T18:52:47.054Z,5.30
2022-08-30T18:55:14.003Z,5.32
2022-08-30T18:57:40.642Z,5.30
2022-08-30T19:00:09.761Z,5.28
2022-08-30T19:02:36.652Z,5.18
2022-08-30T19:05:03.361Z,5.38
2022-08-30T19:07:34.400Z,5.38
2022-08-30T19:10:05.483Z,5.20
2022-08-30T19:12:32.262Z,5.15
2022-08-30T19:14:59.271Z,5.15
2022-08-30T19:17:27.078Z,5.40
2022-08-30T19:19:54.913Z,4.43
2022-08-30T19:22:26.793Z,4.43
2022-08-30T19:24:55.171Z,5.13
2022-08-30T19:27:37.785Z,4.85
2022-08-30T19:32:35.691Z,5.28
2022-08-30T19:35:02.068Z,5.00
2022-08-30T19:37:29.545Z,5.43
2022-08-30T19:39:56.295Z,4.68
2022-08-30T19:42:27.051Z,4.22
2022-08-30T19:44:53.448Z,4.80
2022-08-30T19:47:19.822Z,4.47
2022-08-30T19:49:46.752Z,4.47
2022-08-30T19:52:13.647Z,4.65
2022-08-30T19:57:27.517Z,4.63
2022-08-30T19:59:54.236Z,4.45
2022-08-30T20:02:20.705Z,4.47
2022-08-30T20:04:47.466Z,3.88
2022-08-30T20:07:14.492Z,4.47
2022-08-30T20:09:41.211Z,4.82
2022-08-30T20:12:07.755Z,4.05
2022-08-30T20:14:34.107Z,4.10
2022-08-30T20:17:02.237Z,5.28
2022-08-30T20:19:29.336Z,4.07
2022-08-30T20:21:59.073Z,4.28
2022-08-30T20:24:32.574Z,4.05
2022-08-30T20:26:59.266Z,4.40
2022-08-30T20:29:25.619Z,4.50
2022-08-30T20:31:52.431Z,3.80
2022-08-30T20:34:24.499Z,4.22
2022-08-30T20:36:52.464Z,4.38
2022-08-30T20:39:22.391Z,3.72
2022-08-30T20:41:49.294Z,4.13
2022-08-30T20:44:16.857Z,3.97
2022-08-30T20:46:46.024Z,4.25
2022-08-30T20:49:13.036Z,3.80
2022-08-30T20:51:40.042Z,4.25
2022-08-30T20:54:07.474Z,3.70
2022-08-30T20:56:34.410Z,4.20
2022-08-30T20:59:02.638Z,4.70
2022-08-30T21:01:31.610Z,4.10
2022-08-30T21:03:58.182Z,3.88
2022-08-30T21:06:25.235Z,4.00
2022-08-30T21:08:52.771Z,4.55
2022-08-30T21:11:19.560Z,4.05
2022-08-30T21:13:48.204Z,4.25
2022-08-30T21:16:17.110Z,4.18
2022-08-30T21:18:48.707Z,4.10
2022-08-30T21:21:22.711Z,4.15
2022-08-30T21:23:50.477Z,3.97
2022-08-30T21:26:17.479Z,4.07
2022-08-30T21:28:47.394Z,4.25
2022-08-30T21:31:19.252Z,4.00
2022-08-30T21:33:48.226Z,4.70
2022-08-30T21:36:34.460Z,4.28
2022-08-30T21:39:01.138Z,4.03
2022-08-30T21:41:28.713Z,4.03
2022-08-30T21:44:01.197Z,4.38
2022-08-30T21:46:29.264Z,3.92
2022-08-30T21:48:59.100Z,4.68
2022-08-30T21:51:25.798Z,3.85
2022-08-30T21:53:52.162Z,4.35
2022-08-30T21:56:22.114Z,4.00
2022-08-30T21:58:50.199Z,3.78
2022-08-30T22:01:24.939Z,4.28
2022-08-30T22:03:57.184Z,3.85
2022-08-30T22:06:25.230Z,3.95
2022-08-30T22:08:59.489Z,4.25
2022-08-30T22:11:27.375Z,3.85
2022-08-30T22:13:54.933Z,3.40
2022-08-30T22:16:23.096Z,4.22
2022-08-30T22:18:50.356Z,3.50
2022-08-30T22:21:20.702Z,3.75
2022-08-30T22:23:47.126Z,3.85
2022-08-30T22:26:16.212Z,3.75
2022-08-30T22:28:42.675Z,3.78
2022-08-30T22:31:12.283Z,3.83
2022-08-30T22:33:39.418Z,3.60
2022-08-30T22:36:21.310Z,3.22
2022-08-30T22:38:48.767Z,3.95
2022-08-30T22:41:17.474Z,3.72
2022-08-30T22:43:45.192Z,3.92
2022-08-30T22:46:12.073Z,3.13
2022-08-30T22:48:40.903Z,3.30
2022-08-30T22:51:08.469Z,4.28
2022-08-30T22:53:34.876Z,3.63
2022-08-30T22:56:09.459Z,3.47
2022-08-30T23:01:02.707Z,3.40
2022-08-30T23:03:29.225Z,3.30
2022-08-30T23:05:55.946Z,3.60
2022-08-30T23:08:22.928Z,3.60
2022-08-30T23:10:49.369Z,3.88
2022-08-30T23:13:15.742Z,3.58
2022-08-30T23:15:42.870Z,3.55
2022-08-30T23:18:09.603Z,3.63
2022-08-30T23:20:36.060Z,3.70
2022-08-30T23:23:03.015Z,3.60
2022-08-30T23:25:51.866Z,4.07
2022-08-30T23:28:39.427Z,3.90
2022-08-30T23:31:33.974Z,3.35
2022-08-30T23:34:20.533Z,3.80
2022-08-30T23:37:05.900Z,3.60
2022-08-30T23:39:51.825Z,4.10
2022-08-30T23:42:36.606Z,4.25
2022-08-30T23:45:21.991Z,3.83
2022-08-30T23:48:06.735Z,3.97
2022-08-30T23:50:51.968Z,4.03
2022-08-30T23:53:36.748Z,3.70
2022-08-30T23:56:22.412Z,4.18
2022-08-30T23:59:07.275Z,4.15
